sensor_id;sensor_type;location;lat;lon;timestamp;temperature;humidity
54409;DHT22;40315;48.620;9.828;2024-02-23T00:00:43;6.70;99.90
54409;DHT22;40315;48.620;9.828;2024-02-23T00:03:12;6.50;99.90
54409;DHT22;40315;48.620;9.828;2024-02-23T00:05:41;6.30;99.90
54409;DHT22;40315;48.620;9.828;2024-02-23T00:08:08;6.10;99.90
54409;DHT22;40315;48.620;9.828;2024-02-23T00:10:35;5.70;99.90
54409;DHT22;40315;48.620;9.828;2024-02-23T00:13:02;5.60;99.90
54409;DHT22;40315;48.620;9.828;2024-02-23T00:15:29;5.60;99.90
54409;DHT22;40315;48.620;9.828;2024-02-23T00:17:56;5.60;99.90
54409;DHT22;40315;48.620;9.828;2024-02-23T00:20:23;5.60;99.90
54409;DHT22;40315;48.620;9.828;2024-02-23T00:22:52;5.70;99.90
54409;DHT22;40315;48.620;9.828;2024-02-23T00:25:19;5.70;99.90
54409;DHT22;40315;48.620;9.828;2024-02-23T00:27:46;5.70;99.90
54409;DHT22;40315;48.620;9.828;2024-02-23T00:30:15;5.60;99.90
54409;DHT22;40315;48.620;9.828;2024-02-23T00:32:42;5.60;99.90
54409;DHT22;40315;48.620;9.828;2024-02-23T00:35:09;5.60;99.90
54409;DHT22;40315;48.620;9.828;2024-02-23T00:37:39;5.60;99.90
54409;DHT22;40315;48.620;9.828;2024-02-23T00:40:09;5.60;99.90
54409;DHT22;40315;48.620;9.828;2024-02-23T00:42:36;5.60;99.90
54409;DHT22;40315;48.620;9.828;2024-02-23T00:45:07;5.60;99.90
54409;DHT22;40315;48.620;9.828;2024-02-23T00:47:36;5.60;99.90
54409;DHT22;40315;48.620;9.828;2024-02-23T00:50:04;5.60;99.90
54409;DHT22;40315;48.620;9.828;2024-02-23T00:52:33;5.60;99.90
54409;DHT22;40315;48.620;9.828;2024-02-23T00:55:00;5.50;99.90
54409;DHT22;40315;48.620;9.828;2024-02-23T00:57:28;5.50;99.90
54409;DHT22;40315;48.620;9.828;2024-02-23T00:59:55;5.50;99.90
54409;DHT22;40315;48.620;9.828;2024-02-23T01:02:22;5.50;99.90
54409;DHT22;40315;48.620;9.828;2024-02-23T01:04:49;5.40;99.90
54409;DHT22;40315;48.620;9.828;2024-02-23T01:07:17;5.40;99.90
54409;DHT22;40315;48.620;9.828;2024-02-23T01:09:44;5.40;99.90
54409;DHT22;40315;48.620;9.828;2024-02-23T01:12:11;5.30;99.90
54409;DHT22;40315;48.620;9.828;2024-02-23T01:14:41;5.30;99.90
54409;DHT22;40315;48.620;9.828;2024-02-23T01:17:08;5.30;99.90
54409;DHT22;40315;48.620;9.828;2024-02-23T01:19:35;5.20;99.90
54409;DHT22;40315;48.620;9.828;2024-02-23T01:22:02;5.20;99.90
54409;DHT22;40315;48.620;9.828;2024-02-23T01:24:29;5.20;99.90
54409;DHT22;40315;48.620;9.828;2024-02-23T01:26:56;5.20;99.90
54409;DHT22;40315;48.620;9.828;2024-02-23T01:29:25;5.20;99.90
54409;DHT22;40315;48.620;9.828;2024-02-23T01:31:56;5.20;99.90
54409;DHT22;40315;48.620;9.828;2024-02-23T01:34:23;5.20;99.90
54409;DHT22;40315;48.620;9.828;2024-02-23T01:36:49;5.20;99.90
54409;DHT22;40315;48.620;9.828;2024-02-23T01:39:16;5.20;99.90
54409;DHT22;40315;48.620;9.828;2024-02-23T01:41:43;5.20;99.90
54409;DHT22;40315;48.620;9.828;2024-02-23T01:44:10;5.20;99.90
54409;DHT22;40315;48.620;9.828;2024-02-23T01:46:37;5.20;99.90
54409;DHT22;40315;48.620;9.828;2024-02-23T01:49:08;5.20;99.90
54409;DHT22;40315;48.620;9.828;2024-02-23T01:51:35;5.20;99.90
54409;DHT22;40315;48.620;9.828;2024-02-23T01:54:02;5.10;99.90
54409;DHT22;40315;48.620;9.828;2024-02-23T01:56:31;5.30;99.90
54409;DHT22;40315;48.620;9.828;2024-02-23T01:59:00;5.10;99.90
54409;DHT22;40315;48.620;9.828;2024-02-23T02:04:05;5.20;99.90
54409;DHT22;40315;48.620;9.828;2024-02-23T02:06:33;5.10;99.90
54409;DHT22;40315;48.620;9.828;2024-02-23T02:09:03;5.10;99.90
54409;DHT22;40315;48.620;9.828;2024-02-23T02:11:30;5.10;99.90
54409;DHT22;40315;48.620;9.828;2024-02-23T02:13:57;5.00;99.90
54409;DHT22;40315;48.620;9.828;2024-02-23T02:16:27;5.00;99.90
54409;DHT22;40315;48.620;9.828;2024-02-23T02:18:53;5.00;99.90
54409;DHT22;40315;48.620;9.828;2024-02-23T02:21:22;5.30;99.90
54409;DHT22;40315;48.620;9.828;2024-02-23T02:23:52;5.00;99.90
54409;DHT22;40315;48.620;9.828;2024-02-23T02:26:19;5.10;99.90
54409;DHT22;40315;48.620;9.828;2024-02-23T02:28:45;5.20;99.90
54409;DHT22;40315;48.620;9.828;2024-02-23T02:31:13;5.10;99.90
54409;DHT22;40315;48.620;9.828;2024-02-23T02:33:40;5.10;99.90
54409;DHT22;40315;48.620;9.828;2024-02-23T02:36:09;5.10;99.90
54409;DHT22;40315;48.620;9.828;2024-02-23T02:38:37;5.10;99.90
54409;DHT22;40315;48.620;9.828;2024-02-23T02:41:08;5.10;99.90
54409;DHT22;40315;48.620;9.828;2024-02-23T02:43:35;5.00;99.90
54409;DHT22;40315;48.620;9.828;2024-02-23T02:46:03;5.00;99.90
54409;DHT22;40315;48.620;9.828;2024-02-23T02:48:32;5.10;99.90
54409;DHT22;40315;48.620;9.828;2024-02-23T02:50:59;5.10;99.90
54409;DHT22;40315;48.620;9.828;2024-02-23T02:53:28;5.00;99.90
54409;DHT22;40315;48.620;9.828;2024-02-23T02:55:55;5.00;99.90
54409;DHT22;40315;48.620;9.828;2024-02-23T02:58:24;5.10;99.90
54409;DHT22;40315;48.620;9.828;2024-02-23T03:00:51;5.10;99.90
54409;DHT22;40315;48.620;9.828;2024-02-23T03:03:17;6.40;99.90
54409;DHT22;40315;48.620;9.828;2024-02-23T03:05:44;5.00;99.90
54409;DHT22;40315;48.620;9.828;2024-02-23T03:08:11;5.00;99.90
54409;DHT22;40315;48.620;9.828;2024-02-23T03:10:38;5.00;99.90
54409;DHT22;40315;48.620;9.828;2024-02-23T03:13:07;4.90;99.90
54409;DHT22;40315;48.620;9.828;2024-02-23T03:15:35;4.90;99.90
54409;DHT22;40315;48.620;9.828;2024-02-23T03:18:02;5.00;99.90
54409;DHT22;40315;48.620;9.828;2024-02-23T03:20:33;5.00;99.90
54409;DHT22;40315;48.620;9.828;2024-02-23T03:23:00;5.00;99.90
54409;DHT22;40315;48.620;9.828;2024-02-23T03:25:31;5.00;99.90
54409;DHT22;40315;48.620;9.828;2024-02-23T03:27:58;4.90;99.90
54409;DHT22;40315;48.620;9.828;2024-02-23T03:30:25;4.90;99.90
54409;DHT22;40315;48.620;9.828;2024-02-23T03:32:53;5.00;99.90
54409;DHT22;40315;48.620;9.828;2024-02-23T03:35:22;5.00;99.90
54409;DHT22;40315;48.620;9.828;2024-02-23T03:37:49;5.00;99.90
54409;DHT22;40315;48.620;9.828;2024-02-23T03:40:16;5.00;99.90
54409;DHT22;40315;48.620;9.828;2024-02-23T03:42:43;5.00;99.90
54409;DHT22;40315;48.620;9.828;2024-02-23T03:45:10;5.00;99.90
54409;DHT22;40315;48.620;9.828;2024-02-23T03:47:38;5.00;99.90
54409;DHT22;40315;48.620;9.828;2024-02-23T03:50:10;5.10;99.90
54409;DHT22;40315;48.620;9.828;2024-02-23T03:52:37;5.10;99.90
54409;DHT22;40315;48.620;9.828;2024-02-23T03:55:07;5.10;99.90
54409;DHT22;40315;48.620;9.828;2024-02-23T03:57:34;5.10;99.90
54409;DHT22;40315;48.620;9.828;2024-02-23T04:00:01;5.10;99.90
54409;DHT22;40315;48.620;9.828;2024-02-23T04:02:38;5.10;99.90
54409;DHT22;40315;48.620;9.828;2024-02-23T04:05:08;5.10;99.90
54409;DHT22;40315;48.620;9.828;2024-02-23T04:07:38;5.20;99.90
54409;DHT22;40315;48.620;9.828;2024-02-23T04:10:06;5.20;99.90
54409;DHT22;40315;48.620;9.828;2024-02-23T04:12:36;5.20;99.90
54409;DHT22;40315;48.620;9.828;2024-02-23T04:15:03;5.10;99.90
54409;DHT22;40315;48.620;9.828;2024-02-23T04:17:30;5.00;99.90
54409;DHT22;40315;48.620;9.828;2024-02-23T04:19:57;5.10;99.90
54409;DHT22;40315;48.620;9.828;2024-02-23T04:22:25;5.20;99.90
54409;DHT22;40315;48.620;9.828;2024-02-23T04:24:56;5.10;99.90
54409;DHT22;40315;48.620;9.828;2024-02-23T04:27:23;5.10;99.90
54409;DHT22;40315;48.620;9.828;2024-02-23T04:29:52;5.10;99.90
54409;DHT22;40315;48.620;9.828;2024-02-23T04:32:21;5.10;99.90
54409;DHT22;40315;48.620;9.828;2024-02-23T04:34:49;5.10;99.90
54409;DHT22;40315;48.620;9.828;2024-02-23T04:37:18;5.10;99.90
54409;DHT22;40315;48.620;9.828;2024-02-23T04:39:45;5.10;99.90
54409;DHT22;40315;48.620;9.828;2024-02-23T04:42:13;5.10;99.90
54409;DHT22;40315;48.620;9.828;2024-02-23T04:44:41;5.10;99.90
54409;DHT22;40315;48.620;9.828;2024-02-23T04:49:35;5.00;99.90
54409;DHT22;40315;48.620;9.828;2024-02-23T04:52:02;5.00;99.90
54409;DHT22;40315;48.620;9.828;2024-02-23T04:54:31;5.00;99.90
54409;DHT22;40315;48.620;9.828;2024-02-23T04:56:58;4.90;99.90
54409;DHT22;40315;48.620;9.828;2024-02-23T04:59:26;4.90;99.90
54409;DHT22;40315;48.620;9.828;2024-02-23T05:01:56;4.80;99.90
54409;DHT22;40315;48.620;9.828;2024-02-23T05:04:23;4.80;99.90
54409;DHT22;40315;48.620;9.828;2024-02-23T05:06:52;4.80;99.90
54409;DHT22;40315;48.620;9.828;2024-02-23T05:09:21;4.90;99.90
54409;DHT22;40315;48.620;9.828;2024-02-23T05:11:48;4.90;99.90
54409;DHT22;40315;48.620;9.828;2024-02-23T05:16:46;4.90;99.90
54409;DHT22;40315;48.620;9.828;2024-02-23T05:19:13;4.90;99.90
54409;DHT22;40315;48.620;9.828;2024-02-23T05:21:40;4.80;99.90
54409;DHT22;40315;48.620;9.828;2024-02-23T05:24:06;4.80;99.90
54409;DHT22;40315;48.620;9.828;2024-02-23T05:26:33;4.80;99.90
54409;DHT22;40315;48.620;9.828;2024-02-23T05:29:00;4.70;99.90
54409;DHT22;40315;48.620;9.828;2024-02-23T05:31:46;4.70;99.90
54409;DHT22;40315;48.620;9.828;2024-02-23T05:36:43;4.70;99.90
54409;DHT22;40315;48.620;9.828;2024-02-23T05:39:11;4.70;99.90
54409;DHT22;40315;48.620;9.828;2024-02-23T05:41:40;4.70;99.90
54409;DHT22;40315;48.620;9.828;2024-02-23T05:44:07;4.70;99.90
54409;DHT22;40315;48.620;9.828;2024-02-23T05:46:35;4.60;99.90
54409;DHT22;40315;48.620;9.828;2024-02-23T05:51:31;4.60;99.90
54409;DHT22;40315;48.620;9.828;2024-02-23T05:53:58;4.60;99.90
54409;DHT22;40315;48.620;9.828;2024-02-23T05:56:25;4.50;99.90
54409;DHT22;40315;48.620;9.828;2024-02-23T05:58:52;4.50;99.90
54409;DHT22;40315;48.620;9.828;2024-02-23T06:01:19;4.60;99.90
54409;DHT22;40315;48.620;9.828;2024-02-23T06:03:46;4.70;99.90
54409;DHT22;40315;48.620;9.828;2024-02-23T06:06:15;4.60;99.90
54409;DHT22;40315;48.620;9.828;2024-02-23T06:08:41;4.60;99.90
54409;DHT22;40315;48.620;9.828;2024-02-23T06:11:09;4.60;99.90
54409;DHT22;40315;48.620;9.828;2024-02-23T06:13:36;4.60;99.90
54409;DHT22;40315;48.620;9.828;2024-02-23T06:16:04;4.50;99.90
54409;DHT22;40315;48.620;9.828;2024-02-23T06:18:33;4.60;99.90
54409;DHT22;40315;48.620;9.828;2024-02-23T06:21:02;4.60;99.90
54409;DHT22;40315;48.620;9.828;2024-02-23T06:23:32;4.50;99.90
54409;DHT22;40315;48.620;9.828;2024-02-23T06:25:59;4.50;99.90
54409;DHT22;40315;48.620;9.828;2024-02-23T06:28:26;4.40;99.90
54409;DHT22;40315;48.620;9.828;2024-02-23T06:30:55;4.40;99.90
54409;DHT22;40315;48.620;9.828;2024-02-23T06:33:21;4.30;99.90
54409;DHT22;40315;48.620;9.828;2024-02-23T06:35:51;4.30;99.90
54409;DHT22;40315;48.620;9.828;2024-02-23T06:38:18;4.30;99.90
54409;DHT22;40315;48.620;9.828;2024-02-23T06:40:46;4.30;99.90
54409;DHT22;40315;48.620;9.828;2024-02-23T06:43:13;4.30;99.90
54409;DHT22;40315;48.620;9.828;2024-02-23T06:45:41;2.00;99.90
54409;DHT22;40315;48.620;9.828;2024-02-23T06:48:08;4.20;99.90
54409;DHT22;40315;48.620;9.828;2024-02-23T06:50:35;4.30;99.90
54409;DHT22;40315;48.620;9.828;2024-02-23T06:53:02;4.30;99.90
54409;DHT22;40315;48.620;9.828;2024-02-23T06:55:29;4.30;99.90
54409;DHT22;40315;48.620;9.828;2024-02-23T06:58:00;4.30;99.90
54409;DHT22;40315;48.620;9.828;2024-02-23T07:00:27;4.40;99.90
54409;DHT22;40315;48.620;9.828;2024-02-23T07:02:54;4.50;99.90
54409;DHT22;40315;48.620;9.828;2024-02-23T07:05:23;4.50;99.90
54409;DHT22;40315;48.620;9.828;2024-02-23T07:07:52;4.40;99.90
54409;DHT22;40315;48.620;9.828;2024-02-23T07:10:21;4.50;99.90
54409;DHT22;40315;48.620;9.828;2024-02-23T07:12:50;4.50;99.90
54409;DHT22;40315;48.620;9.828;2024-02-23T07:15:20;4.40;99.90
54409;DHT22;40315;48.620;9.828;2024-02-23T07:17:47;4.30;99.90
54409;DHT22;40315;48.620;9.828;2024-02-23T07:20:14;4.30;99.90
54409;DHT22;40315;48.620;9.828;2024-02-23T07:22:43;4.30;99.90
54409;DHT22;40315;48.620;9.828;2024-02-23T07:25:10;4.30;99.90
54409;DHT22;40315;48.620;9.828;2024-02-23T07:27:40;4.40;99.90
54409;DHT22;40315;48.620;9.828;2024-02-23T07:30:08;4.30;99.90
54409;DHT22;40315;48.620;9.828;2024-02-23T07:32:36;4.30;99.90
54409;DHT22;40315;48.620;9.828;2024-02-23T07:35:04;4.30;99.90
54409;DHT22;40315;48.620;9.828;2024-02-23T07:37:33;4.30;99.90
54409;DHT22;40315;48.620;9.828;2024-02-23T07:40:00;4.30;99.90
54409;DHT22;40315;48.620;9.828;2024-02-23T07:42:29;4.40;99.90
54409;DHT22;40315;48.620;9.828;2024-02-23T07:44:56;4.40;99.90
54409;DHT22;40315;48.620;9.828;2024-02-23T07:47:23;4.50;99.90
54409;DHT22;40315;48.620;9.828;2024-02-23T07:49:53;4.40;99.90
54409;DHT22;40315;48.620;9.828;2024-02-23T07:52:20;4.40;99.90
54409;DHT22;40315;48.620;9.828;2024-02-23T07:54:49;4.40;99.90
54409;DHT22;40315;48.620;9.828;2024-02-23T07:57:17;4.40;99.90
54409;DHT22;40315;48.620;9.828;2024-02-23T07:59:44;4.50;99.90
54409;DHT22;40315;48.620;9.828;2024-02-23T08:02:11;4.60;99.90
54409;DHT22;40315;48.620;9.828;2024-02-23T08:04:38;4.60;99.90
54409;DHT22;40315;48.620;9.828;2024-02-23T08:07:08;4.60;99.90
54409;DHT22;40315;48.620;9.828;2024-02-23T08:09:35;4.70;99.90
54409;DHT22;40315;48.620;9.828;2024-02-23T08:12:06;4.60;99.90
54409;DHT22;40315;48.620;9.828;2024-02-23T08:14:33;4.20;99.90
54409;DHT22;40315;48.620;9.828;2024-02-23T08:19:28;4.70;99.90
54409;DHT22;40315;48.620;9.828;2024-02-23T08:21:55;4.70;99.90
54409;DHT22;40315;48.620;9.828;2024-02-23T08:24:24;4.70;99.90
54409;DHT22;40315;48.620;9.828;2024-02-23T08:26:55;4.70;99.90
54409;DHT22;40315;48.620;9.828;2024-02-23T08:29:22;4.70;99.90
54409;DHT22;40315;48.620;9.828;2024-02-23T08:34:20;4.80;99.90
54409;DHT22;40315;48.620;9.828;2024-02-23T08:36:47;4.80;99.90
54409;DHT22;40315;48.620;9.828;2024-02-23T08:39:14;4.70;99.90
54409;DHT22;40315;48.620;9.828;2024-02-23T08:41:43;4.70;99.90
54409;DHT22;40315;48.620;9.828;2024-02-23T08:46:37;4.80;99.90
54409;DHT22;40315;48.620;9.828;2024-02-23T08:49:07;4.80;99.90
54409;DHT22;40315;48.620;9.828;2024-02-23T08:51:34;4.80;99.90
54409;DHT22;40315;48.620;9.828;2024-02-23T08:54:02;4.80;99.90
54409;DHT22;40315;48.620;9.828;2024-02-23T08:56:30;4.80;99.90
54409;DHT22;40315;48.620;9.828;2024-02-23T09:01:26;4.90;99.90
54409;DHT22;40315;48.620;9.828;2024-02-23T09:06:22;5.00;99.90
54409;DHT22;40315;48.620;9.828;2024-02-23T09:08:51;5.70;99.90
54409;DHT22;40315;48.620;9.828;2024-02-23T09:11:18;4.90;99.90
54409;DHT22;40315;48.620;9.828;2024-02-23T09:13:45;5.00;99.90
54409;DHT22;40315;48.620;9.828;2024-02-23T09:16:13;5.00;99.90
54409;DHT22;40315;48.620;9.828;2024-02-23T09:18:44;5.10;99.90
54409;DHT22;40315;48.620;9.828;2024-02-23T09:21:11;5.10;99.90
54409;DHT22;40315;48.620;9.828;2024-02-23T09:23:38;5.20;99.90
54409;DHT22;40315;48.620;9.828;2024-02-23T09:26:09;5.30;99.90
54409;DHT22;40315;48.620;9.828;2024-02-23T09:28:37;5.30;99.90
54409;DHT22;40315;48.620;9.828;2024-02-23T09:31:03;5.20;99.90
54409;DHT22;40315;48.620;9.828;2024-02-23T09:33:33;5.30;99.90
54409;DHT22;40315;48.620;9.828;2024-02-23T09:43:22;5.40;99.90
54409;DHT22;40315;48.620;9.828;2024-02-23T09:50:50;5.60;99.90
54409;DHT22;40315;48.620;9.828;2024-02-23T09:53:21;5.80;99.90
54409;DHT22;40315;48.620;9.828;2024-02-23T09:55:50;5.70;99.90
54409;DHT22;40315;48.620;9.828;2024-02-23T09:58:18;5.70;99.90
54409;DHT22;40315;48.620;9.828;2024-02-23T10:03:18;5.80;99.90
54409;DHT22;40315;48.620;9.828;2024-02-23T10:05:45;5.80;99.90
54409;DHT22;40315;48.620;9.828;2024-02-23T10:13:18;6.00;99.90
54409;DHT22;40315;48.620;9.828;2024-02-23T10:15:46;6.70;99.90
54409;DHT22;40315;48.620;9.828;2024-02-23T10:18:13;5.90;99.90
54409;DHT22;40315;48.620;9.828;2024-02-23T10:20:41;5.90;99.90
54409;DHT22;40315;48.620;9.828;2024-02-23T10:28:06;5.90;99.90
54409;DHT22;40315;48.620;9.828;2024-02-23T10:33:00;5.80;99.90
54409;DHT22;40315;48.620;9.828;2024-02-23T10:37:55;5.80;99.90
54409;DHT22;40315;48.620;9.828;2024-02-23T10:40:23;5.80;99.90
54409;DHT22;40315;48.620;9.828;2024-02-23T10:42:56;5.90;99.90
54409;DHT22;40315;48.620;9.828;2024-02-23T10:45:23;5.90;99.90
54409;DHT22;40315;48.620;9.828;2024-02-23T10:47:51;5.90;99.90
54409;DHT22;40315;48.620;9.828;2024-02-23T10:50:18;6.10;99.90
54409;DHT22;40315;48.620;9.828;2024-02-23T10:52:46;6.10;99.90
54409;DHT22;40315;48.620;9.828;2024-02-23T10:55:14;6.10;99.90
54409;DHT22;40315;48.620;9.828;2024-02-23T10:57:42;6.10;99.90
54409;DHT22;40315;48.620;9.828;2024-02-23T11:00:12;6.10;99.90
54409;DHT22;40315;48.620;9.828;2024-02-23T11:02:45;6.10;99.90
54409;DHT22;40315;48.620;9.828;2024-02-23T11:05:14;6.10;99.90
54409;DHT22;40315;48.620;9.828;2024-02-23T11:07:42;6.10;99.90
54409;DHT22;40315;48.620;9.828;2024-02-23T11:10:13;6.20;99.90
54409;DHT22;40315;48.620;9.828;2024-02-23T11:12:40;6.20;99.90
54409;DHT22;40315;48.620;9.828;2024-02-23T11:20:05;6.10;99.90
54409;DHT22;40315;48.620;9.828;2024-02-23T11:22:33;6.10;99.90
54409;DHT22;40315;48.620;9.828;2024-02-23T11:25:01;6.20;99.90
54409;DHT22;40315;48.620;9.828;2024-02-23T11:27:30;6.30;99.90
54409;DHT22;40315;48.620;9.828;2024-02-23T11:30:03;6.30;99.90
54409;DHT22;40315;48.620;9.828;2024-02-23T11:35:06;6.30;99.90
54409;DHT22;40315;48.620;9.828;2024-02-23T11:37:45;6.30;99.90
54409;DHT22;40315;48.620;9.828;2024-02-23T11:40:13;6.30;99.90
54409;DHT22;40315;48.620;9.828;2024-02-23T11:42:41;6.30;99.90
54409;DHT22;40315;48.620;9.828;2024-02-23T11:45:09;6.40;99.90
54409;DHT22;40315;48.620;9.828;2024-02-23T11:47:38;6.30;99.90
54409;DHT22;40315;48.620;9.828;2024-02-23T11:50:08;6.30;99.90
54409;DHT22;40315;48.620;9.828;2024-02-23T11:52:37;6.30;99.90
54409;DHT22;40315;48.620;9.828;2024-02-23T11:55:04;6.20;99.90
54409;DHT22;40315;48.620;9.828;2024-02-23T11:57:34;6.20;99.90
54409;DHT22;40315;48.620;9.828;2024-02-23T12:00:01;6.30;99.90
54409;DHT22;40315;48.620;9.828;2024-02-23T12:02:30;6.30;99.90
54409;DHT22;40315;48.620;9.828;2024-02-23T12:07:30;6.40;99.90
54409;DHT22;40315;48.620;9.828;2024-02-23T12:09:58;6.50;99.90
54409;DHT22;40315;48.620;9.828;2024-02-23T12:12:25;6.30;99.90
54409;DHT22;40315;48.620;9.828;2024-02-23T12:24:45;6.60;99.90
54409;DHT22;40315;48.620;9.828;2024-02-23T12:27:16;6.80;99.90
54409;DHT22;40315;48.620;9.828;2024-02-23T12:29:51;6.80;99.90
54409;DHT22;40315;48.620;9.828;2024-02-23T12:32:20;6.90;99.90
54409;DHT22;40315;48.620;9.828;2024-02-23T12:34:47;6.90;99.90
54409;DHT22;40315;48.620;9.828;2024-02-23T12:37:16;7.00;99.90
54409;DHT22;40315;48.620;9.828;2024-02-23T12:39:45;7.00;99.90
54409;DHT22;40315;48.620;9.828;2024-02-23T12:44:43;6.80;99.90
54409;DHT22;40315;48.620;9.828;2024-02-23T12:47:12;6.70;99.90
54409;DHT22;40315;48.620;9.828;2024-02-23T13:34:06;7.00;99.90
54409;DHT22;40315;48.620;9.828;2024-02-23T13:39:00;7.00;99.90
54409;DHT22;40315;48.620;9.828;2024-02-23T13:41:27;7.00;99.90
54409;DHT22;40315;48.620;9.828;2024-02-23T13:43:54;7.10;99.90
54409;DHT22;40315;48.620;9.828;2024-02-23T13:46:23;7.00;99.90
54409;DHT22;40315;48.620;9.828;2024-02-23T13:49:02;7.00;99.90
54409;DHT22;40315;48.620;9.828;2024-02-23T13:51:29;7.10;99.90
54409;DHT22;40315;48.620;9.828;2024-02-23T13:53:57;7.20;99.90
54409;DHT22;40315;48.620;9.828;2024-02-23T13:56:24;7.30;99.90
54409;DHT22;40315;48.620;9.828;2024-02-23T13:58:53;7.30;99.90
54409;DHT22;40315;48.620;9.828;2024-02-23T14:01:20;7.20;99.90
54409;DHT22;40315;48.620;9.828;2024-02-23T14:03:51;7.30;99.90
54409;DHT22;40315;48.620;9.828;2024-02-23T14:06:18;7.20;99.90
54409;DHT22;40315;48.620;9.828;2024-02-23T14:08:45;7.30;99.90
54409;DHT22;40315;48.620;9.828;2024-02-23T14:11:16;7.50;99.90
54409;DHT22;40315;48.620;9.828;2024-02-23T14:13:46;7.50;99.90
54409;DHT22;40315;48.620;9.828;2024-02-23T14:16:13;7.60;99.90
54409;DHT22;40315;48.620;9.828;2024-02-23T14:18:43;7.70;99.90
54409;DHT22;40315;48.620;9.828;2024-02-23T14:23:41;7.60;99.90
54409;DHT22;40315;48.620;9.828;2024-02-23T14:26:08;7.50;99.90
54409;DHT22;40315;48.620;9.828;2024-02-23T14:28:36;7.40;99.90
54409;DHT22;40315;48.620;9.828;2024-02-23T14:31:03;7.50;99.90
54409;DHT22;40315;48.620;9.828;2024-02-23T14:33:31;7.50;99.90
54409;DHT22;40315;48.620;9.828;2024-02-23T14:35:58;7.50;99.90
54409;DHT22;40315;48.620;9.828;2024-02-23T14:40:53;7.50;99.90
54409;DHT22;40315;48.620;9.828;2024-02-23T14:43:23;7.50;99.90
54409;DHT22;40315;48.620;9.828;2024-02-23T14:45:50;7.60;99.90
54409;DHT22;40315;48.620;9.828;2024-02-23T14:48:18;7.60;99.90
54409;DHT22;40315;48.620;9.828;2024-02-23T14:50:45;7.70;99.90
54409;DHT22;40315;48.620;9.828;2024-02-23T14:53:15;7.70;99.90
54409;DHT22;40315;48.620;9.828;2024-02-23T14:55:46;7.80;99.90
54409;DHT22;40315;48.620;9.828;2024-02-23T14:58:13;7.70;99.90
54409;DHT22;40315;48.620;9.828;2024-02-23T15:00:40;7.60;99.90
54409;DHT22;40315;48.620;9.828;2024-02-23T15:03:07;7.60;99.90
54409;DHT22;40315;48.620;9.828;2024-02-23T15:05:35;9.40;99.90
54409;DHT22;40315;48.620;9.828;2024-02-23T15:08:02;7.80;99.90
54409;DHT22;40315;48.620;9.828;2024-02-23T15:10:29;7.70;99.90
54409;DHT22;40315;48.620;9.828;2024-02-23T15:12:58;7.70;99.90
54409;DHT22;40315;48.620;9.828;2024-02-23T15:15:26;7.60;99.90
54409;DHT22;40315;48.620;9.828;2024-02-23T15:17:53;7.50;99.90
54409;DHT22;40315;48.620;9.828;2024-02-23T15:20:20;7.50;99.90
54409;DHT22;40315;48.620;9.828;2024-02-23T15:25:17;7.90;99.90
54409;DHT22;40315;48.620;9.828;2024-02-23T15:27:44;7.40;99.90
54409;DHT22;40315;48.620;9.828;2024-02-23T15:30:15;7.60;99.90
54409;DHT22;40315;48.620;9.828;2024-02-23T15:32:42;7.50;99.90
54409;DHT22;40315;48.620;9.828;2024-02-23T15:35:09;7.40;99.90
54409;DHT22;40315;48.620;9.828;2024-02-23T15:37:37;7.40;99.90
54409;DHT22;40315;48.620;9.828;2024-02-23T15:40:04;7.40;99.90
54409;DHT22;40315;48.620;9.828;2024-02-23T15:42:32;7.40;99.90
54409;DHT22;40315;48.620;9.828;2024-02-23T15:45:01;7.50;99.90
54409;DHT22;40315;48.620;9.828;2024-02-23T15:47:30;7.30;99.90
54409;DHT22;40315;48.620;9.828;2024-02-23T15:49:59;7.30;99.90
54409;DHT22;40315;48.620;9.828;2024-02-23T15:52:29;7.30;99.90
54409;DHT22;40315;48.620;9.828;2024-02-23T15:54:56;7.20;99.90
54409;DHT22;40315;48.620;9.828;2024-02-23T15:57:23;7.20;99.90
54409;DHT22;40315;48.620;9.828;2024-02-23T15:59:50;7.10;99.90
54409;DHT22;40315;48.620;9.828;2024-02-23T16:02:17;7.00;99.90
54409;DHT22;40315;48.620;9.828;2024-02-23T16:04:48;6.80;99.90
54409;DHT22;40315;48.620;9.828;2024-02-23T16:07:15;6.80;99.90
54409;DHT22;40315;48.620;9.828;2024-02-23T16:09:42;6.70;99.90
54409;DHT22;40315;48.620;9.828;2024-02-23T16:12:09;6.70;99.90
54409;DHT22;40315;48.620;9.828;2024-02-23T16:14:38;6.70;99.90
54409;DHT22;40315;48.620;9.828;2024-02-23T16:17:05;6.60;99.90
54409;DHT22;40315;48.620;9.828;2024-02-23T16:19:32;6.60;99.90
54409;DHT22;40315;48.620;9.828;2024-02-23T16:22:00;6.60;99.90
54409;DHT22;40315;48.620;9.828;2024-02-23T16:24:30;6.60;99.90
54409;DHT22;40315;48.620;9.828;2024-02-23T16:26:59;6.70;99.90
54409;DHT22;40315;48.620;9.828;2024-02-23T16:29:26;6.70;99.90
54409;DHT22;40315;48.620;9.828;2024-02-23T16:31:55;6.40;99.90
54409;DHT22;40315;48.620;9.828;2024-02-23T16:34:23;6.40;99.90
54409;DHT22;40315;48.620;9.828;2024-02-23T16:36:50;6.30;99.90
54409;DHT22;40315;48.620;9.828;2024-02-23T16:39:19;6.20;99.90
54409;DHT22;40315;48.620;9.828;2024-02-23T16:41:46;6.20;99.90
54409;DHT22;40315;48.620;9.828;2024-02-23T16:44:13;6.20;99.90
54409;DHT22;40315;48.620;9.828;2024-02-23T16:46:44;6.10;99.90
54409;DHT22;40315;48.620;9.828;2024-02-23T16:49:13;6.10;99.90
54409;DHT22;40315;48.620;9.828;2024-02-23T16:51:40;6.00;99.90
54409;DHT22;40315;48.620;9.828;2024-02-23T16:56:38;6.00;99.90
54409;DHT22;40315;48.620;9.828;2024-02-23T16:59:05;5.80;99.90
54409;DHT22;40315;48.620;9.828;2024-02-23T17:06:28;5.60;99.90
54409;DHT22;40315;48.620;9.828;2024-02-23T17:08:56;5.50;99.90
54409;DHT22;40315;48.620;9.828;2024-02-23T17:26:16;5.30;99.90
54409;DHT22;40315;48.620;9.828;2024-02-23T17:28:43;5.30;99.90
54409;DHT22;40315;48.620;9.828;2024-02-23T17:31:13;5.20;99.90
54409;DHT22;40315;48.620;9.828;2024-02-23T17:33:40;5.20;99.90
54409;DHT22;40315;48.620;9.828;2024-02-23T17:36:07;5.30;99.90
54409;DHT22;40315;48.620;9.828;2024-02-23T17:43:29;5.20;99.90
54409;DHT22;40315;48.620;9.828;2024-02-23T17:48:26;5.10;99.90
54409;DHT22;40315;48.620;9.828;2024-02-23T17:50:54;5.10;99.90
54409;DHT22;40315;48.620;9.828;2024-02-23T17:53:21;5.00;99.90
54409;DHT22;40315;48.620;9.828;2024-02-23T17:58:19;5.10;99.90
54409;DHT22;40315;48.620;9.828;2024-02-23T18:00:48;6.30;99.90
54409;DHT22;40315;48.620;9.828;2024-02-23T18:03:17;5.00;99.90
54409;DHT22;40315;48.620;9.828;2024-02-23T18:08:14;4.90;99.90
54409;DHT22;40315;48.620;9.828;2024-02-23T18:10:41;4.80;99.90
54409;DHT22;40315;48.620;9.828;2024-02-23T18:13:08;4.80;99.90
54409;DHT22;40315;48.620;9.828;2024-02-23T18:15:36;4.80;99.90
54409;DHT22;40315;48.620;9.828;2024-02-23T18:18:04;4.80;99.90
54409;DHT22;40315;48.620;9.828;2024-02-23T18:20:31;5.20;99.90
54409;DHT22;40315;48.620;9.828;2024-02-23T18:25:28;4.80;99.90
54409;DHT22;40315;48.620;9.828;2024-02-23T18:30:23;4.90;99.90
54409;DHT22;40315;48.620;9.828;2024-02-23T18:32:51;4.90;99.90
54409;DHT22;40315;48.620;9.828;2024-02-23T18:35:18;4.90;99.90
54409;DHT22;40315;48.620;9.828;2024-02-23T18:37:45;4.90;99.90
54409;DHT22;40315;48.620;9.828;2024-02-23T18:40:14;4.90;99.90